Time;durP1;ratioP1;P1;durP2;ratioP2;P2;SDS_P1;SDS_P2;PMS_P1;PMS_P2;Temp;Humidity;BMP_temperature;BMP_pressure;BME280_temperature;BME280_humidity;BME280_pressure;Samples;Min_cycle;Max_cycle;Signal;HPM_P1;HPM_P2
2021/11/26 00:02:27;;;;;;;78.50;35.63;;;0.70;99.90;;;;;;5093772;28;20024;-69
2021/11/26 00:04:53;;;;;;;68.97;33.25;;;0.80;99.90;;;;;;5093940;28;20017;-69
2021/11/26 00:07:20;;;;;;;75.07;35.20;;;0.70;99.90;;;;;;5092852;28;20027;-68
2021/11/26 00:09:47;;;;;;;76.43;35.97;;;0.70;99.90;;;;;;5092377;28;20035;-69
2021/11/26 00:12:13;;;;;;;75.05;34.45;;;0.60;99.90;;;;;;5092778;28;20020;-69
2021/11/26 00:17:23;;;;;;;73.88;33.78;;;0.70;99.90;;;;;;5091879;28;20039;-69
2021/11/26 00:19:50;;;;;;;78.45;36.33;;;0.80;99.90;;;;;;5093467;28;20024;-69
2021/11/26 00:22:16;;;;;;;76.03;35.25;;;0.80;99.90;;;;;;5091667;28;20280;-69
2021/11/26 00:24:42;;;;;;;79.63;36.33;;;0.70;99.90;;;;;;5093387;28;20032;-69
2021/11/26 00:27:07;;;;;;;73.45;34.75;;;0.60;99.90;;;;;;5092917;28;20111;-69
2021/11/26 00:29:33;;;;;;;76.63;35.45;;;0.60;99.90;;;;;;5093556;28;20031;-69
2021/11/26 00:31:59;;;;;;;79.60;37.13;;;0.60;99.90;;;;;;5093116;28;20024;-70
2021/11/26 00:34:25;;;;;;;77.47;36.22;;;0.60;99.90;;;;;;5092185;28;20032;-68
2021/11/26 00:36:51;;;;;;;82.50;36.58;;;0.60;99.90;;;;;;5093134;28;20470;-68
2021/11/26 00:39:17;;;;;;;81.45;37.40;;;0.60;99.90;;;;;;5091233;28;20028;-68
2021/11/26 00:41:42;;;;;;;80.28;37.42;;;0.50;99.90;;;;;;5093325;28;20069;-69
2021/11/26 00:44:08;;;;;;;79.47;35.97;;;0.50;99.90;;;;;;5092161;28;20381;-69
2021/11/26 00:46:34;;;;;;;81.82;37.50;;;0.60;99.90;;;;;;5091855;28;20032;-69
2021/11/26 00:49:01;;;;;;;86.32;38.70;;;0.50;99.90;;;;;;5092156;28;20135;-70
2021/11/26 00:51:30;;;;;;;75.40;35.28;;;0.50;99.90;;;;;;5092584;28;20040;-69
2021/11/26 00:53:59;;;;;;;78.57;36.33;;;0.50;99.90;;;;;;5092784;28;20036;-69
2021/11/26 00:56:25;;;;;;;81.00;37.78;;;0.50;99.90;;;;;;5092466;28;20081;-69
2021/11/26 00:58:51;;;;;;;80.82;37.17;;;0.50;99.90;;;;;;5092957;28;20107;-69
2021/11/26 01:01:17;;;;;;;80.35;36.97;;;0.40;99.90;;;;;;5092505;28;20059;-70
2021/11/26 01:03:43;;;;;;;81.35;37.13;;;0.40;99.90;;;;;;5092333;28;20024;-69
2021/11/26 01:06:08;;;;;;;80.55;36.60;;;0.40;99.90;;;;;;5092003;28;20031;-69
2021/11/26 01:08:34;;;;;;;81.47;37.38;;;0.40;99.90;;;;;;5092448;28;20043;-69
2021/11/26 01:11:03;;;;;;;78.65;36.47;;;0.40;99.90;;;;;;5091124;28;20055;-70
2021/11/26 01:13:29;;;;;;;81.82;37.53;;;0.40;99.90;;;;;;5092048;28;20493;-69
2021/11/26 01:15:55;;;;;;;82.38;37.55;;;0.40;99.90;;;;;;5092365;28;20031;-69
2021/11/26 01:18:21;;;;;;;82.05;38.40;;;0.40;99.90;;;;;;5091624;28;20086;-69
2021/11/26 01:20:48;;;;;;;81.43;36.67;;;0.40;99.90;;;;;;5092516;28;20039;-69
2021/11/26 01:23:14;;;;;;;79.38;36.40;;;0.50;99.90;;;;;;5090666;28;20028;-69
2021/11/26 01:25:40;;;;;;;82.78;36.72;;;0.60;99.90;;;;;;5091230;28;20032;-69
2021/11/26 01:28:07;;;;;;;75.45;34.10;;;0.60;99.90;;;;;;5091604;28;20035;-70
2021/11/26 01:30:40;;;;;;;81.20;37.65;;;0.50;99.90;;;;;;5090823;28;20109;-69
2021/11/26 01:33:10;;;;;;;71.78;33.92;;;0.50;99.90;;;;;;5091248;28;20073;-70
2021/11/26 01:35:37;;;;;;;76.63;35.57;;;0.40;99.90;;;;;;5091463;28;20039;-69
2021/11/26 01:38:05;;;;;;;76.80;36.03;;;0.40;99.90;;;;;;5091782;28;20472;-70
2021/11/26 01:40:36;;;;;;;70.88;33.30;;;0.40;99.90;;;;;;5091817;28;20031;-69
2021/11/26 01:43:07;;;;;;;69.75;33.35;;;0.50;99.90;;;;;;5091339;28;20104;-70
2021/11/26 01:45:41;;;;;;;72.45;33.60;;;0.60;99.90;;;;;;5092071;28;20031;-69
2021/11/26 01:48:07;;;;;;;68.43;33.60;;;0.60;99.90;;;;;;5090804;28;20543;-69
2021/11/26 01:50:33;;;;;;;70.95;34.13;;;0.60;99.90;;;;;;5090310;28;20132;-69
2021/11/26 01:52:58;;;;;;;76.63;34.53;;;0.50;99.90;;;;;;5091443;28;20020;-69
2021/11/26 01:55:24;;;;;;;79.05;35.55;;;0.40;99.90;;;;;;5090706;28;20032;-69
2021/11/26 01:57:49;;;;;;;72.10;33.65;;;0.50;99.90;;;;;;5091388;28;20083;-69
2021/11/26 02:00:22;;;;;;;78.38;36.38;;;0.50;99.90;;;;;;5091224;28;20024;-70
2021/11/26 02:02:48;;;;;;;73.55;34.55;;;0.50;99.90;;;;;;5091269;28;20050;-69
2021/11/26 02:05:13;;;;;;;74.47;35.47;;;0.50;99.90;;;;;;5090285;28;20032;-69
2021/11/26 02:07:39;;;;;;;75.00;35.05;;;0.50;99.90;;;;;;5089679;28;20024;-69
2021/11/26 02:10:06;;;;;;;78.78;36.58;;;0.40;99.90;;;;;;5090934;28;20076;-70
2021/11/26 02:12:31;;;;;;;75.13;34.00;;;0.50;99.90;;;;;;5091396;28;20027;-69
2021/11/26 02:14:58;;;;;;;80.43;35.35;;;0.40;99.90;;;;;;5091238;28;20024;-69
2021/11/26 02:17:25;;;;;;;77.70;36.35;;;0.50;99.90;;;;;;5090332;28;20710;-69
2021/11/26 02:19:52;;;;;;;78.45;37.15;;;0.50;99.90;;;;;;5091237;28;20024;-69
2021/11/26 02:22:18;;;;;;;81.03;36.63;;;0.40;99.90;;;;;;5090103;28;20400;-70
2021/11/26 02:24:43;;;;;;;77.55;36.38;;;0.50;99.90;;;;;;5091008;28;20032;-69
2021/11/26 02:27:09;;;;;;;70.28;33.50;;;0.50;99.90;;;;;;5090710;28;20024;-69
2021/11/26 02:29:35;;;;;;;73.80;34.45;;;0.40;99.90;;;;;;5091030;28;20473;-69
2021/11/26 02:32:01;;;;;;;73.78;35.20;;;0.40;99.90;;;;;;5091168;28;20028;-69
2021/11/26 02:34:26;;;;;;;74.50;33.72;;;0.40;99.90;;;;;;5090244;28;20066;-69
2021/11/26 02:36:52;;;;;;;70.00;35.13;;;0.40;99.90;;;;;;5091052;28;20036;-69
2021/11/26 02:39:18;;;;;;;74.43;35.03;;;0.40;99.90;;;;;;5090107;28;20111;-70
2021/11/26 02:41:44;;;;;;;71.72;32.67;;;0.40;99.90;;;;;;5089510;28;20168;-69
2021/11/26 02:44:11;;;;;;;68.65;31.20;;;0.40;99.90;;;;;;5090146;28;20028;-69
2021/11/26 02:46:37;;;;;;;71.38;34.28;;;0.40;99.90;;;;;;5090898;28;20110;-69
2021/11/26 02:49:09;;;;;;;69.78;32.65;;;0.40;99.90;;;;;;5090872;28;20052;-70
2021/11/26 02:51:35;;;;;;;74.57;35.63;;;0.50;99.90;;;;;;5089878;28;20077;-69
2021/11/26 02:54:02;;;;;;;75.78;34.40;;;0.60;99.90;;;;;;5091756;28;20024;-69
2021/11/26 02:56:28;;;;;;;72.90;35.15;;;0.60;99.90;;;;;;5089638;28;20119;-69
2021/11/26 02:58:55;;;;;;;71.57;32.85;;;0.60;99.90;;;;;;5091603;28;20107;-69
2021/11/26 03:01:21;;;;;;;66.25;31.73;;;0.60;99.90;;;;;;5090627;28;20447;-69
2021/11/26 03:03:47;;;;;;;69.82;33.28;;;0.50;99.90;;;;;;5091754;28;20028;-69
2021/11/26 03:06:13;;;;;;;70.03;33.15;;;0.60;99.90;;;;;;5090928;28;20070;-69
2021/11/26 03:08:39;;;;;;;71.82;34.92;;;0.50;99.90;;;;;;5091248;28;20036;-69
2021/11/26 03:11:07;;;;;;;76.97;33.83;;;0.50;99.90;;;;;;5090664;28;20030;-70
2021/11/26 03:13:33;;;;;;;69.32;32.00;;;0.50;99.90;;;;;;5073080;28;20115;-70
2021/11/26 03:15:59;;;;;;;73.05;32.80;;;0.50;99.90;;;;;;5091613;28;20028;-69
2021/11/26 03:18:27;;;;;;;74.45;34.05;;;0.40;99.90;;;;;;5090624;28;20032;-69
2021/11/26 03:20:53;;;;;;;75.60;35.13;;;0.40;99.90;;;;;;5091180;28;20103;-69
2021/11/26 03:23:20;;;;;;;71.43;33.90;;;0.40;99.90;;;;;;5090194;28;20107;-70
2021/11/26 03:25:46;;;;;;;69.43;32.25;;;0.50;99.90;;;;;;5090956;28;20059;-69
2021/11/26 03:28:14;;;;;;;73.82;34.08;;;0.40;99.90;;;;;;5090159;28;20103;-70
2021/11/26 03:30:41;;;;;;;76.35;34.92;;;0.40;99.90;;;;;;5090854;28;20047;-69
2021/11/26 03:33:09;;;;;;;72.10;33.30;;;0.50;99.90;;;;;;5090706;28;20039;-70
2021/11/26 03:35:36;;;;;;;70.40;32.67;;;0.50;99.90;;;;;;5093502;28;20024;-69
2021/11/26 03:38:02;;;;;;;73.63;33.97;;;0.60;99.90;;;;;;5095220;28;20590;-69
2021/11/26 03:40:29;;;;;;;76.15;33.53;;;0.60;99.90;;;;;;5094086;28;20060;-69
2021/11/26 03:42:57;;;;;;;76.80;33.33;;;0.60;99.90;;;;;;5094963;28;20473;-69
2021/11/26 03:45:28;;;;;;;79.18;35.55;;;0.60;99.90;;;;;;5094416;28;20028;-69
2021/11/26 03:47:54;;;;;;;72.85;34.05;;;0.60;99.90;;;;;;5094813;28;20055;-69
2021/11/26 03:50:20;;;;;;;79.68;35.35;;;0.60;99.90;;;;;;5094092;28;20039;-69
2021/11/26 03:52:46;;;;;;;76.90;34.47;;;0.50;99.90;;;;;;5094830;28;20028;-69
2021/11/26 03:55:16;;;;;;;72.97;33.65;;;0.50;99.90;;;;;;5093714;28;20511;-70
2021/11/26 03:57:42;;;;;;;75.45;35.53;;;0.50;99.90;;;;;;5094804;28;20032;-69
2021/11/26 04:00:10;;;;;;;70.03;33.50;;;0.50;99.90;;;;;;5094407;28;20530;-70
2021/11/26 04:02:37;;;;;;;74.65;35.47;;;0.50;99.90;;;;;;5093522;28;20032;-69
2021/11/26 04:05:03;;;;;;;66.40;31.38;;;0.50;99.90;;;;;;5093090;28;20020;-69
2021/11/26 04:07:29;;;;;;;74.85;34.80;;;0.50;99.90;;;;;;5092527;28;20099;-69
2021/11/26 04:09:56;;;;;;;73.30;33.47;;;0.50;99.90;;;;;;5093380;28;20064;-71
2021/11/26 04:12:22;;;;;;;65.70;29.52;;;0.50;99.90;;;;;;5092271;28;20107;-69
2021/11/26 04:14:53;;;;;;;67.45;31.85;;;0.60;99.90;;;;;;5092875;28;20473;-69
2021/11/26 04:17:20;;;;;;;64.80;29.90;;;0.50;99.90;;;;;;5092318;28;20024;-68
2021/11/26 04:19:45;;;;;;;74.90;33.72;;;0.50;99.90;;;;;;5093103;28;20107;-69
2021/11/26 04:22:11;;;;;;;71.30;32.95;;;0.40;99.90;;;;;;5090739;28;20127;-70
2021/11/26 04:24:37;;;;;;;81.00;36.30;;;0.40;99.90;;;;;;5092700;28;20035;-70
2021/11/26 04:27:03;;;;;;;78.28;35.50;;;0.50;99.90;;;;;;5092711;28;20063;-68
2021/11/26 04:29:29;;;;;;;83.07;36.40;;;0.40;99.90;;;;;;5092009;28;20028;-69
2021/11/26 04:31:55;;;;;;;83.03;38.28;;;0.40;99.90;;;;;;5092740;28;20113;-69
2021/11/26 04:34:20;;;;;;;79.70;36.85;;;0.30;99.90;;;;;;5089453;28;20031;-70
2021/11/26 04:36:46;;;;;;;85.68;37.17;;;0.30;99.90;;;;;;5092639;28;20393;-70
2021/11/26 04:39:12;;;;;;;77.18;33.83;;;0.30;99.90;;;;;;5091578;28;20081;-70
2021/11/26 04:41:37;;;;;;;79.07;35.40;;;0.30;99.90;;;;;;5090720;28;20131;-70
2021/11/26 04:44:03;;;;;;;86.50;37.72;;;0.30;99.90;;;;;;5092161;28;20060;-70
2021/11/26 04:46:29;;;;;;;88.00;37.85;;;0.30;99.90;;;;;;5091762;28;20070;-70
2021/11/26 04:48:55;;;;;;;81.78;37.63;;;0.30;99.90;;;;;;5092186;28;20549;-71
2021/11/26 04:51:21;;;;;;;86.88;36.65;;;0.30;99.90;;;;;;5091502;28;20043;-70
2021/11/26 04:53:46;;;;;;;86.05;37.70;;;0.40;99.90;;;;;;5092390;28;20021;-70
2021/11/26 04:56:12;;;;;;;84.45;36.45;;;0.40;99.90;;;;;;5091580;28;20116;-71
2021/11/26 04:58:38;;;;;;;77.13;34.10;;;0.40;99.90;;;;;;5092475;28;20064;-70
2021/11/26 05:01:05;;;;;;;78.13;36.05;;;0.40;99.90;;;;;;5091688;28;20072;-70
2021/11/26 05:03:31;;;;;;;80.55;38.72;;;0.40;99.90;;;;;;5091892;28;20065;-70
2021/11/26 05:05:57;;;;;;;78.97;37.38;;;0.40;99.90;;;;;;5091950;28;20434;-70
2021/11/26 05:08:23;;;;;;;78.57;36.58;;;0.40;99.90;;;;;;5091414;28;20043;-70
2021/11/26 05:10:53;;;;;;;79.38;35.67;;;0.40;99.90;;;;;;5091524;28;20472;-70
2021/11/26 05:13:26;;;;;;;80.35;36.50;;;0.50;99.90;;;;;;5091359;28;20017;-70
2021/11/26 05:15:52;;;;;;;79.65;34.47;;;0.40;99.90;;;;;;5091876;28;20092;-70
2021/11/26 05:18:23;;;;;;;78.00;34.55;;;0.50;99.90;;;;;;5091297;28;20103;-70
2021/11/26 05:20:50;;;;;;;75.03;34.13;;;0.40;99.90;;;;;;5091560;28;20025;-70
2021/11/26 05:23:16;;;;;;;81.07;35.78;;;0.50;99.90;;;;;;5091138;28;20031;-70
2021/11/26 05:25:43;;;;;;;74.35;34.75;;;0.50;99.90;;;;;;5091813;28;20020;-69
2021/11/26 05:28:10;;;;;;;72.93;34.53;;;0.60;99.90;;;;;;5091672;28;20113;-70
2021/11/26 05:30:36;;;;;;;76.45;36.08;;;0.60;99.90;;;;;;5091861;28;20368;-70
2021/11/26 05:33:02;;;;;;;75.93;33.63;;;0.70;99.90;;;;;;5092082;28;20409;-69
2021/11/26 05:35:28;;;;;;;74.70;34.08;;;0.70;99.90;;;;;;5091001;28;20630;-70
2021/11/26 05:37:54;;;;;;;73.22;33.10;;;0.70;99.90;;;;;;5090444;28;20032;-69
2021/11/26 05:40:19;;;;;;;71.03;33.55;;;0.70;99.90;;;;;;5090245;28;20048;-71
2021/11/26 05:42:46;;;;;;;76.10;33.33;;;0.70;99.90;;;;;;5092047;28;20034;-70
2021/11/26 05:45:13;;;;;;;75.10;34.67;;;0.70;99.90;;;;;;5090486;28;20028;-70
2021/11/26 05:47:39;;;;;;;76.88;33.75;;;0.60;99.90;;;;;;5090893;28;20465;-68
2021/11/26 05:50:08;;;;;;;72.47;33.00;;;0.60;99.90;;;;;;5091212;28;20026;-69
2021/11/26 05:52:34;;;;;;;80.10;35.72;;;0.60;99.90;;;;;;5091134;28;20036;-68
2021/11/26 05:55:00;;;;;;;75.00;35.17;;;0.60;99.90;;;;;;5087049;28;20043;-71
2021/11/26 05:57:26;;;;;;;82.75;36.88;;;0.70;99.90;;;;;;5091236;28;20621;-70
2021/11/26 05:59:52;;;;;;;87.65;36.92;;;0.70;99.90;;;;;;5091030;28;20029;-70
2021/11/26 06:02:18;;;;;;;84.30;37.25;;;0.70;99.90;;;;;;5091585;28;20028;-70
2021/11/26 06:04:43;;;;;;;89.85;37.85;;;0.80;99.90;;;;;;5092635;28;20020;-70
2021/11/26 06:07:10;;;;;;;87.25;39.60;;;0.70;99.90;;;;;;5089915;28;20046;-71
2021/11/26 06:09:36;;;;;;;79.10;37.28;;;0.70;99.90;;;;;;5092698;28;20459;-70
2021/11/26 06:12:02;;;;;;;81.97;36.15;;;0.70;99.90;;;;;;5091900;28;20059;-70
2021/11/26 06:14:28;;;;;;;79.53;35.50;;;0.70;99.90;;;;;;5091566;28;20020;-70
2021/11/26 06:16:53;;;;;;;82.60;36.38;;;0.70;99.90;;;;;;5092206;28;20039;-69
2021/11/26 06:19:19;;;;;;;72.78;34.17;;;0.70;99.90;;;;;;5091494;28;20032;-70
2021/11/26 06:21:45;;;;;;;75.97;35.45;;;0.60;99.90;;;;;;5090655;28;20032;-70
2021/11/26 06:24:12;;;;;;;78.45;36.55;;;0.60;99.90;;;;;;5091506;28;20032;-68
2021/11/26 06:26:39;;;;;;;88.18;39.85;;;0.60;99.90;;;;;;5092057;28;20032;-68
2021/11/26 06:29:04;;;;;;;79.60;36.72;;;0.60;99.90;;;;;;5092148;28;20047;-68
2021/11/26 06:31:30;;;;;;;79.53;36.50;;;0.60;99.90;;;;;;5089980;28;20063;-68
2021/11/26 06:33:56;;;;;;;83.43;37.47;;;0.60;99.90;;;;;;5091795;28;20020;-68
2021/11/26 06:36:22;;;;;;;82.85;37.25;;;0.60;99.90;;;;;;5090669;28;20061;-69
2021/11/26 06:38:48;;;;;;;78.65;35.65;;;0.60;99.90;;;;;;5090938;28;20377;-72
2021/11/26 06:41:14;;;;;;;80.43;36.60;;;0.60;99.90;;;;;;5090872;28;20020;-71
2021/11/26 06:43:40;;;;;;;79.85;35.72;;;0.60;99.90;;;;;;5091482;28;20219;-71
2021/11/26 06:46:07;;;;;;;77.95;36.47;;;0.60;99.90;;;;;;5091647;28;20494;-68
2021/11/26 06:48:32;;;;;;;81.10;35.65;;;0.60;99.90;;;;;;5090181;28;20048;-71
2021/11/26 06:50:58;;;;;;;75.00;34.30;;;0.60;99.90;;;;;;5091416;28;20453;-68
2021/11/26 06:53:24;;;;;;;77.53;34.67;;;0.60;99.90;;;;;;5090851;28;20085;-68
2021/11/26 06:55:50;;;;;;;69.65;32.90;;;0.60;99.90;;;;;;5091522;28;20039;-68
2021/11/26 06:58:17;;;;;;;75.55;34.45;;;0.60;99.90;;;;;;5090895;28;20526;-69
2021/11/26 07:00:42;;;;;;;85.15;37.15;;;0.60;99.90;;;;;;5092114;28;20494;-69
2021/11/26 07:03:14;;;;;;;75.85;34.67;;;0.60;99.90;;;;;;5091651;28;20020;-69
2021/11/26 07:05:40;;;;;;;74.88;33.88;;;0.70;99.90;;;;;;5091629;28;20028;-69
2021/11/26 07:08:06;;;;;;;73.70;34.03;;;0.70;99.90;;;;;;5091308;28;20032;-69
2021/11/26 07:10:32;;;;;;;74.82;35.08;;;0.70;99.90;;;;;;5093397;28;20028;-69
2021/11/26 07:12:57;;;;;;;75.82;33.53;;;0.70;99.90;;;;;;5095605;28;20024;-69
2021/11/26 07:15:23;;;;;;;74.65;33.65;;;0.80;99.90;;;;;;5094528;28;20035;-69
2021/11/26 07:17:49;;;;;;;69.82;32.40;;;0.80;99.90;;;;;;5095564;28;20028;-69
2021/11/26 07:20:15;;;;;;;69.50;30.65;;;0.80;99.90;;;;;;5094656;28;20069;-70
2021/11/26 07:22:42;;;;;;;68.15;31.08;;;0.90;99.90;;;;;;5095585;28;20031;-69
2021/11/26 07:25:14;;;;;;;66.57;30.75;;;1.00;99.90;;;;;;5095388;28;20016;-69
2021/11/26 07:27:40;;;;;;;67.32;31.90;;;1.00;99.90;;;;;;5095394;28;20084;-70
2021/11/26 07:30:08;;;;;;;65.93;31.65;;;1.00;99.90;;;;;;5093970;28;20030;-69
2021/11/26 07:32:34;;;;;;;66.15;30.33;;;1.00;99.90;;;;;;5093513;28;20024;-69
2021/11/26 07:35:00;;;;;;;62.25;28.88;;;1.00;99.90;;;;;;5091806;28;20133;-70
2021/11/26 07:37:25;;;;;;;66.18;30.33;;;1.10;99.90;;;;;;5073457;28;20048;-70
2021/11/26 07:39:52;;;;;;;61.95;29.58;;;1.10;99.90;;;;;;5092128;28;20103;-70
2021/11/26 07:42:18;;;;;;;65.53;30.50;;;1.10;99.90;;;;;;5093810;28;20426;-70
2021/11/26 07:44:44;;;;;;;61.47;28.33;;;1.30;99.90;;;;;;5095551;28;20104;-70
2021/11/26 07:47:17;;;;;;;60.53;29.10;;;1.30;99.90;;;;;;5093626;28;20032;-71
2021/11/26 07:49:44;;;;;;;64.32;31.38;;;1.30;99.90;;;;;;5095338;28;20055;-70
2021/11/26 07:52:16;;;;;;;62.38;30.33;;;1.30;99.90;;;;;;5094768;28;20017;-71
2021/11/26 07:54:42;;;;;;;65.72;31.33;;;1.20;99.90;;;;;;5094743;28;20024;-70
2021/11/26 07:57:07;;;;;;;63.45;29.48;;;1.30;99.90;;;;;;5094889;28;20028;-70
2021/11/26 07:59:33;;;;;;;63.15;30.60;;;1.30;99.90;;;;;;5093251;28;20032;-70
2021/11/26 08:01:59;;;;;;;66.53;32.25;;;1.30;99.90;;;;;;5094725;28;20444;-70
2021/11/26 08:04:25;;;;;;;65.75;31.77;;;1.30;99.90;;;;;;5092580;28;20030;-70
2021/11/26 08:06:51;;;;;;;64.00;31.52;;;1.30;99.90;;;;;;5094590;28;20527;-70
2021/11/26 08:09:17;;;;;;;63.33;29.88;;;1.30;99.90;;;;;;5093686;28;20032;-70
2021/11/26 08:11:44;;;;;;;65.18;30.55;;;1.40;99.90;;;;;;5094897;28;20017;-70
2021/11/26 08:14:19;;;;;;;63.88;30.55;;;1.40;99.90;;;;;;5094323;28;20028;-71
2021/11/26 08:16:46;;;;;;;64.95;30.42;;;1.40;99.90;;;;;;5094557;28;20028;-70
2021/11/26 08:19:14;;;;;;;66.03;30.65;;;1.40;99.90;;;;;;5092974;28;20389;-71
2021/11/26 08:21:40;;;;;;;60.47;29.77;;;1.50;99.90;;;;;;5093934;28;20058;-69
2021/11/26 08:24:08;;;;;;;68.38;30.95;;;1.50;99.90;;;;;;5094410;28;20028;-71
2021/11/26 08:26:34;;;;;;;63.10;29.60;;;1.50;99.90;;;;;;5093398;28;20196;-69
2021/11/26 08:29:02;;;;;;;66.97;31.48;;;1.50;99.90;;;;;;5094019;28;20035;-69
2021/11/26 08:31:28;;;;;;;65.10;32.15;;;1.60;99.90;;;;;;5093577;28;20024;-69
2021/11/26 08:33:54;;;;;;;77.03;32.85;;;1.60;99.90;;;;;;5093226;28;20153;-69
2021/11/26 08:36:21;;;;;;;67.63;30.45;;;1.60;99.90;;;;;;5092837;28;20040;-70
2021/11/26 08:38:47;;;;;;;71.47;32.45;;;1.60;99.90;;;;;;5093476;28;20028;-69
2021/11/26 08:41:15;;;;;;;61.75;30.83;;;1.60;99.90;;;;;;5093465;28;20133;-69
2021/11/26 08:43:42;;;;;;;67.47;33.08;;;1.70;99.90;;;;;;5094253;28;20107;-68
2021/11/26 08:46:08;;;;;;;71.45;33.05;;;1.70;99.90;;;;;;5094401;28;20392;-70
2021/11/26 08:48:33;;;;;;;70.20;34.08;;;1.70;99.90;;;;;;5093097;28;20138;-69
2021/11/26 08:50:59;;;;;;;61.45;30.65;;;1.80;99.90;;;;;;5094306;28;20039;-69
2021/11/26 08:53:25;;;;;;;65.43;30.42;;;1.80;99.90;;;;;;5093374;28;20024;-69
2021/11/26 08:55:53;;;;;;;69.10;32.03;;;1.80;99.90;;;;;;5094042;28;20032;-69
2021/11/26 08:58:20;;;;;;;64.18;31.42;;;1.90;99.90;;;;;;5093014;28;20028;-70
2021/11/26 09:00:46;;;;;;;61.85;30.88;;;1.90;99.90;;;;;;5093555;28;20032;-69
2021/11/26 09:03:16;;;;;;;63.63;30.83;;;2.00;99.90;;;;;;5093404;28;20028;-71
2021/11/26 09:05:43;;;;;;;69.55;32.72;;;2.00;99.90;;;;;;5091129;28;20029;-69
2021/11/26 09:08:14;;;;;;;75.35;33.90;;;2.00;99.90;;;;;;5093871;28;20028;-68
2021/11/26 09:10:41;;;;;;;67.22;31.63;;;2.00;99.90;;;;;;5093309;28;20485;-69
2021/11/26 09:13:07;;;;;;;66.60;31.13;;;2.10;99.90;;;;;;5093537;28;20020;-69
2021/11/26 09:15:35;;;;;;;68.70;32.08;;;2.10;99.90;;;;;;5092704;28;20186;-69
2021/11/26 09:18:01;;;;;;;73.05;33.53;;;2.10;99.90;;;;;;5093284;28;20028;-69
2021/11/26 09:20:27;;;;;;;67.63;31.75;;;2.20;99.90;;;;;;5092386;28;20484;-69
2021/11/26 09:22:54;;;;;;;71.75;32.78;;;2.20;99.90;;;;;;5093430;28;20095;-69
2021/11/26 09:25:20;;;;;;;69.82;32.85;;;2.20;99.90;;;;;;5092329;28;20107;-70
2021/11/26 09:27:46;;;;;;;64.25;31.30;;;2.30;99.90;;;;;;5093279;28;20040;-68
2021/11/26 09:30:23;;;;;;;71.97;34.15;;;2.30;99.90;;;;;;5091549;28;20024;-69
2021/11/26 09:32:49;;;;;;;64.40;30.15;;;2.40;99.90;;;;;;5092352;28;20024;-71
2021/11/26 09:35:17;;;;;;;64.18;31.98;;;2.40;99.90;;;;;;5092392;28;20016;-70
2021/11/26 09:37:43;;;;;;;65.07;31.27;;;2.40;99.90;;;;;;5092806;28;20066;-72
2021/11/26 09:40:10;;;;;;;62.33;30.23;;;2.40;99.90;;;;;;5092813;28;20508;-70
2021/11/26 09:42:38;;;;;;;65.22;31.02;;;2.40;99.90;;;;;;5092163;28;20032;-68
2021/11/26 09:45:05;;;;;;;65.75;31.33;;;2.50;99.90;;;;;;5092248;28;20024;-69
2021/11/26 09:47:31;;;;;;;69.57;31.38;;;2.50;99.90;;;;;;5092344;28;20468;-69
2021/11/26 09:49:59;;;;;;;67.32;31.58;;;2.50;99.90;;;;;;5092763;28;20047;-69
2021/11/26 09:52:25;;;;;;;67.47;31.10;;;2.40;99.90;;;;;;5092015;28;20024;-68
2021/11/26 09:54:50;;;;;;;61.97;30.42;;;2.40;99.90;;;;;;5092870;28;20032;-69
2021/11/26 09:57:18;;;;;;;68.15;32.58;;;2.40;99.90;;;;;;5091907;28;20121;-68
2021/11/26 09:59:45;;;;;;;65.60;31.60;;;2.40;99.90;;;;;;5092539;28;20039;-68
2021/11/26 10:02:20;;;;;;;63.08;30.42;;;2.40;99.90;;;;;;5092428;28;20020;-69
2021/11/26 10:05:22;;;;;;;61.13;31.13;;;2.50;99.90;;;;;;5091816;28;20426;-70
2021/11/26 10:07:54;;;;;;;60.58;29.73;;;2.50;99.90;;;;;;5010127;28;20029;-69
2021/11/26 10:10:26;;;;;;;64.05;30.85;;;2.40;99.90;;;;;;5078612;28;20048;-69
2021/11/26 10:13:00;;;;;;;63.08;31.08;;;2.50;99.90;;;;;;5092424;28;20153;-68
2021/11/26 10:15:32;;;;;;;70.05;32.13;;;2.60;99.90;;;;;;5091324;28;20028;-68
2021/11/26 10:18:08;;;;;;;63.80;31.52;;;2.60;99.90;;;;;;5092532;28;20480;-71
2021/11/26 10:20:34;;;;;;;66.20;31.60;;;2.80;99.90;;;;;;5091226;28;20165;-70
2021/11/26 10:23:04;;;;;;;61.20;31.17;;;2.80;99.90;;;;;;5091937;28;20031;-72
2021/11/26 10:25:29;;;;;;;67.85;31.98;;;2.90;99.90;;;;;;5091287;28;20157;-71
2021/11/26 10:28:00;;;;;;;71.30;34.22;;;3.00;99.90;;;;;;5091756;28;20059;-71
2021/11/26 10:30:37;;;;;;;67.80;33.03;;;2.90;99.90;;;;;;5091176;28;20101;-70
2021/11/26 10:33:13;;;;;;;68.63;32.00;;;2.90;99.90;;;;;;5091789;28;20351;-70
2021/11/26 10:35:41;;;;;;;68.47;32.17;;;2.90;99.90;;;;;;5088419;28;20021;-70
2021/11/26 10:38:11;;;;;;;62.42;29.73;;;2.90;99.90;;;;;;5091831;28;20032;-70
2021/11/26 10:40:40;;;;;;;67.57;31.08;;;2.90;99.90;;;;;;5091282;28;20032;-70
2021/11/26 10:43:16;;;;;;;66.53;31.52;;;2.90;99.90;;;;;;5090529;28;20047;-71
2021/11/26 10:59:13;;;;;;;68.57;32.38;;;2.90;99.90;;;;;;5091579;28;20107;-69
2021/11/26 11:01:47;;;;;;;66.18;30.98;;;2.90;99.90;;;;;;5090517;28;20036;-68
2021/11/26 11:04:18;;;;;;;71.20;31.00;;;2.90;99.90;;;;;;5091434;28;20133;-69
2021/11/26 11:06:43;;;;;;;60.30;29.27;;;2.80;99.90;;;;;;5091169;28;20068;-69
2021/11/26 11:09:11;;;;;;;70.53;30.58;;;2.80;99.90;;;;;;5091907;28;20040;-69
2021/11/26 11:11:50;;;;;;;69.60;31.42;;;2.80;99.90;;;;;;5090860;28;20225;-70
2021/11/26 11:14:18;;;;;;;67.05;29.80;;;2.80;99.90;;;;;;5091784;28;20081;-70
2021/11/26 11:16:56;;;;;;;64.35;29.42;;;2.90;99.90;;;;;;5091078;28;20028;-71
2021/11/26 11:19:24;;;;;;;63.03;30.52;;;2.80;99.90;;;;;;5090633;28;20034;-71
2021/11/26 11:21:51;;;;;;;63.60;30.23;;;2.90;99.90;;;;;;5091409;28;20024;-71
2021/11/26 11:24:17;;;;;;;58.20;28.13;;;2.90;99.90;;;;;;5091750;28;20069;-71
2021/11/26 11:26:47;;;;;;;64.00;29.85;;;2.90;99.90;;;;;;5091017;28;20117;-70
2021/11/26 11:29:22;;;;;;;61.55;29.30;;;2.90;99.90;;;;;;5091681;28;20028;-69
2021/11/26 11:31:50;;;;;;;61.45;28.60;;;2.90;99.90;;;;;;5091621;28;20140;-75
2021/11/26 11:34:20;;;;;;;60.70;28.77;;;2.90;99.90;;;;;;5091336;28;20436;-74
2021/11/26 11:36:47;;;;;;;62.15;29.95;;;2.80;99.90;;;;;;5091561;28;20040;-75
2021/11/26 11:39:13;;;;;;;62.92;29.85;;;2.80;99.90;;;;;;5091650;28;20381;-74
2021/11/26 11:41:53;;;;;;;66.30;31.42;;;2.80;99.90;;;;;;5090725;28;20030;-74
2021/11/26 11:44:34;;;;;;;67.55;28.42;;;2.70;99.90;;;;;;5091184;28;20042;-73
2021/11/26 11:47:14;;;;;;;67.88;29.55;;;2.70;99.90;;;;;;5091685;28;20047;-73
2021/11/26 11:49:40;;;;;;;;;;;2.70;99.90;;;;;;5090444;28;20825;-72
2021/11/26 11:52:10;;;;;;;64.15;28.52;;;2.80;99.90;;;;;;5091413;28;19908;-71
2021/11/26 11:54:45;;;;;;;61.95;28.58;;;2.80;99.90;;;;;;5090676;28;20427;-73
2021/11/26 11:57:27;;;;;;;57.92;28.23;;;2.80;99.90;;;;;;5094199;28;20032;-74
2021/11/26 12:00:10;;;;;;;54.40;26.38;;;2.80;99.90;;;;;;5094862;28;20060;-73
2021/11/26 12:02:35;;;;;;;57.67;27.25;;;2.80;99.90;;;;;;5094089;28;20024;-73
2021/11/26 12:05:03;;;;;;;57.80;27.38;;;2.90;99.90;;;;;;5094412;28;20027;-74
2021/11/26 12:07:32;;;;;;;56.75;26.13;;;2.90;99.90;;;;;;5094028;28;20515;-78
2021/11/26 12:10:13;;;;;;;56.30;25.88;;;2.90;99.90;;;;;;5093666;28;20067;-73
2021/11/26 12:12:50;;;;;;;57.58;27.35;;;3.00;99.90;;;;;;5093474;28;20035;-73
2021/11/26 12:15:27;;;;;;;52.35;25.15;;;2.90;99.90;;;;;;5094655;28;20127;-71
2021/11/26 12:18:03;;;;;;;50.80;25.38;;;3.00;99.90;;;;;;5094406;28;20028;-72
2021/11/26 12:20:30;;;;;;;59.05;26.02;;;3.00;99.90;;;;;;5093511;28;20028;-72
2021/11/26 12:23:02;;;;;;;55.65;26.27;;;3.00;99.90;;;;;;5094593;28;20024;-74
2021/11/26 12:28:05;;;;;;;53.58;26.15;;;3.10;99.90;;;;;;5094345;28;20032;-73
2021/11/26 12:30:32;;;;;;;56.63;26.33;;;3.00;99.90;;;;;;5093664;28;20059;-76
2021/11/26 12:32:57;;;;;;;53.95;24.90;;;3.00;99.90;;;;;;5094218;28;20461;-73
2021/11/26 12:35:24;;;;;;;55.05;24.98;;;3.00;99.90;;;;;;5092702;28;20066;-74
2021/11/26 12:38:00;;;;;;;58.50;26.08;;;3.00;99.90;;;;;;5094360;28;20039;-75
2021/11/26 12:40:26;;;;;;;63.50;28.15;;;3.00;99.90;;;;;;5092015;28;20082;-74
2021/11/26 12:43:01;;;;;;;58.25;26.67;;;3.00;99.90;;;;;;5093996;28;20107;-73
2021/11/26 12:45:34;;;;;;;57.92;27.17;;;3.10;99.90;;;;;;5093294;28;20065;-73
2021/11/26 12:48:09;;;;;;;54.95;26.33;;;3.10;99.90;;;;;;5093825;28;20048;-85
2021/11/26 12:53:27;;;;;;;63.13;26.95;;;3.10;99.90;;;;;;5093469;28;20039;-78
2021/11/26 12:55:54;;;;;;;59.00;26.70;;;3.10;99.90;;;;;;5093534;28;20170;-82
2021/11/26 12:58:22;;;;;;;57.20;26.65;;;3.20;99.90;;;;;;5093740;28;20510;-76
2021/11/26 13:00:56;;;;;;;57.72;26.20;;;3.30;99.90;;;;;;5092813;28;20107;-73
2021/11/26 13:03:32;;;;;;;59.60;26.55;;;3.40;99.90;;;;;;5093206;28;20035;-71